Time;durP1;ratioP1;P1;durP2;ratioP2;P2;SDS_P1;SDS_P2;PMS_P1;PMS_P2;Temp;Humidity;BMP_temperature;BMP_pressure;BME280_temperature;BME280_humidity;BME280_pressure;Samples;Min_cycle;Max_cycle;Signal;HPM_P1;HPM_P2
2023/09/11 00:00:52;;;;;;;9.85;7.57;;;;;;;21.61;62.52;100889.47;2098570;28;20044;-72
2023/09/11 00:01:54;;;;;;;10.60;7.30;;;;;;;21.59;62.52;100884.31;2106882;28;20870;-72
2023/09/11 00:02:58;;;;;;;8.65;6.80;;;;;;;21.59;62.56;100894.47;2098662;28;20044;-72
2023/09/11 00:03:59;;;;;;;10.65;7.03;;;;;;;21.58;62.73;100893.69;2099492;27;20083;-72
2023/09/11 00:05:01;;;;;;;8.85;6.78;;;;;;;21.57;62.81;100886.63;2115559;27;20051;-72
2023/09/11 00:06:06;;;;;;;11.40;7.30;;;;;;;21.57;62.69;100880.38;2123837;27;20885;-72
2023/09/11 00:07:08;;;;;;;8.60;6.63;;;;;;;21.56;62.63;100885.00;2124282;27;20039;-72
2023/09/11 00:08:10;;;;;;;8.98;7.10;;;;;;;21.56;62.45;100884.22;2115278;27;20046;-71
2023/09/11 00:09:12;;;;;;;8.98;6.95;;;;;;;21.55;62.57;100888.09;2098734;28;20037;-71
2023/09/11 00:10:13;;;;;;;10.27;7.28;;;;;;;21.54;62.41;100883.78;2098346;28;20037;-71
2023/09/11 00:11:16;;;;;;;11.00;6.45;;;;;;;;;;2090986;28;20039;-71
2023/09/11 00:12:21;;;;;;;9.40;6.95;;;;;;;21.52;62.43;100892.31;2098947;28;20096;-71
2023/09/11 00:13:22;;;;;;;8.70;6.80;;;;;;;21.50;62.53;100879.00;2107291;28;20039;-71
2023/09/11 00:14:26;;;;;;;9.35;6.55;;;;;;;;;;2114982;28;20127;-71
2023/09/11 00:15:34;;;;;;;10.23;6.90;;;;;;;21.50;62.51;100886.38;2115849;27;20212;-71
2023/09/11 00:16:36;;;;;;;9.95;6.78;;;;;;;21.49;62.62;100879.34;2106601;28;20071;-71
2023/09/11 00:17:39;;;;;;;10.05;7.40;;;;;;;21.50;62.54;100881.75;2099290;28;20033;-72
2023/09/11 00:18:41;;;;;;;9.02;7.25;;;;;;;21.49;62.56;100879.34;2106354;28;20024;-71
2023/09/11 00:19:43;;;;;;;9.27;6.97;;;;;;;21.48;62.50;100886.75;2098922;28;20025;-72
2023/09/11 00:20:45;;;;;;;10.93;6.78;;;;;;;21.48;62.64;100878.53;2098590;28;20037;-71
2023/09/11 00:21:47;;;;;;;8.73;7.05;;;;;;;21.47;62.64;100879.69;2098068;28;20072;-71
2023/09/11 00:22:51;;;;;;;9.60;7.20;;;;;;;21.48;62.59;100884.00;2089084;28;20171;-71
2023/09/11 00:23:55;;;;;;;8.73;6.97;;;;;;;21.47;62.68;100887.09;2107351;27;20036;-72
2023/09/11 00:24:57;;;;;;;8.95;7.10;;;;;;;21.46;62.93;100880.81;2107136;28;20796;-71
2023/09/11 00:25:59;;;;;;;8.63;7.13;;;;;;;21.46;63.07;100880.81;2098616;28;20036;-71
2023/09/11 00:27:01;;;;;;;10.18;7.05;;;;;;;21.46;62.95;100890.97;2098407;28;20116;-71
2023/09/11 00:28:05;;;;;;;10.40;7.05;;;;;;;21.45;63.01;100883.91;2107009;27;20872;-71
2023/09/11 00:29:09;;;;;;;7.32;6.38;;;;;;;21.44;62.90;100888.59;2098695;28;20155;-71
2023/09/11 00:30:12;;;;;;;9.30;7.25;;;;;;;21.44;62.79;100885.84;2091114;28;20038;-71
2023/09/11 00:31:13;;;;;;;9.02;6.43;;;;;;;21.43;62.76;100889.69;2090355;28;20126;-70
2023/09/11 00:32:15;;;;;;;9.45;6.63;;;;;;;21.42;62.81;100885.38;2098682;27;20969;-71
2023/09/11 00:33:17;;;;;;;8.57;6.90;;;;;;;21.42;62.67;100885.38;2106946;28;20045;-70
2023/09/11 00:34:18;;;;;;;9.38;6.80;;;;;;;21.41;62.67;100881.06;2098664;28;20017;-72
2023/09/11 00:35:22;;;;;;;9.95;7.15;;;;;;;21.41;62.78;100883.00;2107365;27;20019;-70
2023/09/11 00:36:24;;;;;;;8.50;6.88;;;;;;;21.41;62.64;100881.06;2115747;27;20119;-71
2023/09/11 00:37:26;;;;;;;12.80;6.93;;;;;;;21.40;62.84;100884.91;2115139;27;20028;-71
2023/09/11 00:38:28;;;;;;;9.35;6.88;;;;;;;21.39;62.85;100883.34;2115155;27;20024;-71
2023/09/11 00:39:31;;;;;;;8.02;6.78;;;;;;;21.39;62.94;100883.34;2098115;28;20033;-71
2023/09/11 00:40:35;;;;;;;9.95;6.93;;;;;;;21.39;62.85;100883.34;2098353;28;20887;-71
2023/09/11 00:41:36;;;;;;;7.60;6.28;;;;;;;21.40;62.87;100884.91;2098460;28;20150;-71
2023/09/11 00:42:38;;;;;;;8.75;6.85;;;;;;;21.39;62.93;100891.53;2089944;28;20036;-71
2023/09/11 00:43:40;;;;;;;9.32;6.78;;;;;;;21.38;63.02;100889.97;2090137;28;20045;-71
2023/09/11 00:44:42;;;;;;;8.95;6.15;;;;;;;21.39;62.88;100891.53;2106940;27;20170;-71
2023/09/11 00:45:44;;;;;;;8.50;6.45;;;;;;;21.40;62.80;100893.13;2106382;28;20040;-71
2023/09/11 00:46:46;;;;;;;8.60;6.20;;;;;;;21.38;62.57;100887.22;2097825;28;20044;-71
2023/09/11 00:47:53;;;;;;;9.93;6.28;;;;;;;21.39;62.51;100879.81;2098811;28;20140;-71
2023/09/11 00:48:56;;;;;;;11.48;6.68;;;;;;;21.38;62.72;100884.50;2098940;28;20807;-71
2023/09/11 00:50:00;;;;;;;10.30;6.40;;;;;;;21.38;62.48;100883.69;2099161;27;20046;-72
2023/09/11 00:51:03;;;;;;;9.15;6.45;;;;;;;21.37;62.62;100887.56;2114875;28;20028;-72
2023/09/11 00:52:08;;;;;;;8.38;6.72;;;;;;;21.36;62.55;100886.75;2106472;28;20110;-72
2023/09/11 00:53:13;;;;;;;9.15;6.20;;;;;;;21.36;62.35;100884.03;2107921;27;20023;-72
2023/09/11 00:54:15;;;;;;;12.07;6.47;;;;;;;21.36;62.29;100881.28;2098348;28;20029;-72
2023/09/11 00:55:20;;;;;;;10.50;6.57;;;;;;;21.36;62.36;100881.28;2099225;27;20036;-72
2023/09/11 00:56:24;;;;;;;9.15;6.28;;;;;;;21.36;62.34;100885.97;2107379;28;20211;-72
2023/09/11 00:57:30;;;;;;;8.75;6.63;;;;;;;21.36;62.50;100889.50;2107552;27;20759;-72
2023/09/11 00:58:32;;;;;;;7.22;6.03;;;;;;;21.38;62.33;100881.75;2107117;28;20898;-72
2023/09/11 00:59:33;;;;;;;8.77;6.03;;;;;;;21.38;62.31;100878.22;2106975;27;20794;-72
2023/09/11 01:00:35;;;;;;;8.27;6.00;;;;;;;21.38;62.55;100881.75;2106182;28;20773;-72
2023/09/11 01:01:38;;;;;;;7.95;6.22;;;;;;;21.36;62.46;100881.28;2106859;27;20027;-72
2023/09/11 01:02:38;;;;;;;8.10;5.75;;;;;;;21.37;62.24;100876.59;2106247;28;20847;-72
2023/09/11 01:03:43;;;;;;;8.27;5.68;;;;;;;21.37;62.39;100882.88;2106714;28;20032;-72
2023/09/11 01:04:46;;;;;;;7.47;5.90;;;;;;;21.37;62.22;100877.41;2115246;27;20028;-72
2023/09/11 01:05:50;;;;;;;9.00;6.20;;;;;;;21.36;62.35;100875.81;2123349;27;20110;-72
2023/09/11 01:06:54;;;;;;;9.68;5.97;;;;;;;21.37;62.01;100873.88;2107235;28;20021;-72
2023/09/11 01:07:57;;;;;;;8.10;5.72;;;;;;;21.37;61.91;100877.41;2106804;28;20139;-72
2023/09/11 01:09:01;;;;;;;8.18;6.03;;;;;;;21.38;61.99;100873.53;2091000;28;20786;-72
2023/09/11 01:10:06;;;;;;;7.40;5.72;;;;;;;21.37;62.06;100874.66;2090893;28;20041;-72
2023/09/11 01:11:11;;;;;;;8.02;6.32;;;;;;;21.37;61.98;100871.94;2107116;28;20888;-71
2023/09/11 01:12:13;;;;;;;7.47;5.60;;;;;;;21.38;61.80;100873.53;2114815;28;20040;-71
2023/09/11 01:13:17;;;;;;;7.65;5.90;;;;;;;21.37;61.67;100871.94;2089607;28;20983;-71
2023/09/11 01:14:18;;;;;;;9.05;5.82;;;;;;;21.38;61.67;100873.53;2090452;28;20032;-71
2023/09/11 01:15:24;;;;;;;6.63;5.43;;;;;;;21.38;61.62;100876.28;2089952;28;20047;-71
2023/09/11 01:16:44;;;;;;;10.65;6.53;;;;;;;21.36;61.57;100870.34;2091077;28;20029;-72
2023/09/11 01:18:07;;;;;;;10.88;5.70;;;;;;;21.37;61.42;100871.13;2102986;28;20046;-71
2023/09/11 01:19:37;;;;;;;7.18;5.95;;;;;;;21.38;61.63;100872.75;2098710;28;20890;-72
2023/09/11 01:21:17;;;;;;;7.68;5.57;;;;;;;21.37;61.55;100871.94;2106337;28;20040;-72
2023/09/11 01:22:33;;;;;;;7.82;6.03;;;;;;;21.38;61.62;100873.53;2100620;28;20044;-72
2023/09/11 01:23:52;;;;;;;9.23;5.47;;;;;;;21.38;61.56;100862.59;2104578;28;20167;-72
2023/09/11 01:25:18;;;;;;;7.35;5.63;;;;;;;21.39;61.54;100863.41;2092088;28;20029;-72
2023/09/11 01:26:31;;;;;;;8.25;5.88;;;;;;;21.38;61.46;100862.59;2099981;28;21304;-72
2023/09/11 01:27:57;;;;;;;8.50;5.75;;;;;;;21.37;61.32;100874.66;2099548;28;20203;-71
2023/09/11 01:29:09;;;;;;;8.63;6.10;;;;;;;21.37;61.52;100865.66;2105032;28;20051;-71
2023/09/11 01:30:13;;;;;;;11.10;6.28;;;;;;;21.35;61.41;100870.69;2108199;28;20036;-72
2023/09/11 01:31:21;;;;;;;8.77;6.70;;;;;;;21.35;61.51;100868.75;2090364;28;20776;-72
2023/09/11 01:32:25;;;;;;;8.23;6.32;;;;;;;21.35;61.39;100860.56;2091028;28;20044;-71
2023/09/11 01:33:27;;;;;;;10.07;6.55;;;;;;;21.35;61.42;100862.47;2099186;28;20151;-72
2023/09/11 01:34:29;;;;;;;9.60;6.07;;;;;;;21.35;61.44;100868.75;2097751;28;20128;-72
2023/09/11 01:35:31;;;;;;;8.40;6.03;;;;;;;21.34;61.68;100864.38;2106349;28;20033;-72
2023/09/11 01:36:33;;;;;;;8.13;6.28;;;;;;;21.34;61.60;100869.84;2106306;28;20024;-72
2023/09/11 01:37:34;;;;;;;7.78;6.15;;;;;;;21.34;61.45;100867.13;2089555;28;20025;-72
2023/09/11 01:38:37;;;;;;;7.47;5.90;;;;;;;21.35;61.67;100857.81;2090208;28;20026;-71
2023/09/11 01:39:43;;;;;;;7.72;6.15;;;;;;;21.35;61.40;100857.00;2098047;28;20119;-72
2023/09/11 01:40:51;;;;;;;10.20;6.00;;;;;;;21.35;61.50;100857.81;2099444;28;20974;-72
2023/09/11 01:41:59;;;;;;;11.60;7.28;;;;;;;21.34;61.49;100861.66;2097769;28;20037;-72
2023/09/11 01:43:05;;;;;;;8.55;6.18;;;;;;;21.35;61.78;100857.81;2092434;28;20046;-72
2023/09/11 01:44:34;;;;;;;9.20;6.47;;;;;;;21.35;61.99;100857.00;2098293;28;20859;-72
2023/09/11 01:45:37;;;;;;;8.52;6.38;;;;;;;21.36;61.70;100851.19;2088965;28;20151;-71
2023/09/11 01:46:38;;;;;;;7.88;6.63;;;;;;;21.36;61.95;100864.88;2089541;28;20030;-72
2023/09/11 01:47:42;;;;;;;9.52;6.22;;;;;;;21.36;61.91;100858.63;2106147;28;20037;-72
2023/09/11 01:48:45;;;;;;;8.52;6.20;;;;;;;21.34;61.97;100847.97;2098246;28;20021;-72
2023/09/11 01:49:47;;;;;;;8.95;5.90;;;;;;;21.36;61.90;100859.41;2098856;28;20041;-72
2023/09/11 01:50:50;;;;;;;8.50;6.72;;;;;;;21.36;61.91;100853.16;2089680;28;20072;-72
2023/09/11 01:51:57;;;;;;;9.07;6.65;;;;;;;21.35;62.05;100849.63;2089885;28;20773;-72
2023/09/11 01:52:59;;;;;;;10.00;6.05;;;;;;;21.35;62.04;100857.81;2098597;28;20029;-72
2023/09/11 01:54:01;;;;;;;8.18;6.43;;;;;;;21.34;62.04;100856.19;2089866;28;20421;-72
2023/09/11 01:55:04;;;;;;;10.25;6.78;;;;;;;21.34;61.96;100850.72;2098150;28;20025;-72
2023/09/11 01:56:09;;;;;;;9.25;6.57;;;;;;;21.34;61.89;100849.91;2098866;28;20092;-72
2023/09/11 01:57:12;;;;;;;8.95;6.88;;;;;;;21.33;62.25;100849.13;2090384;28;20046;-72
2023/09/11 01:58:19;;;;;;;9.25;6.53;;;;;;;21.34;62.55;100849.91;2089511;28;20046;-72
2023/09/11 01:59:21;;;;;;;9.10;6.60;;;;;;;21.34;62.47;100844.44;2099964;28;20852;-72
2023/09/11 02:00:23;;;;;;;7.85;6.35;;;;;;;21.33;62.67;100853.81;2098100;28;20029;-72
2023/09/11 02:01:26;;;;;;;9.45;6.68;;;;;;;21.31;62.67;100851.38;2098192;28;20028;-72
2023/09/11 02:02:32;;;;;;;9.10;6.50;;;;;;;21.31;62.68;100851.38;2107122;28;20086;-71
2023/09/11 02:03:34;;;;;;;10.13;6.65;;;;;;;21.32;62.56;100849.47;2098308;28;20088;-71
2023/09/11 02:04:38;;;;;;;11.55;7.15;;;;;;;21.31;62.62;100851.38;2090596;28;20042;-71
2023/09/11 02:05:42;;;;;;;11.07;7.15;;;;;;;21.29;62.52;100842.75;2097758;28;20064;-71
2023/09/11 02:06:44;;;;;;;10.35;7.18;;;;;;;21.27;62.63;100845.03;2082919;28;20033;-71
2023/09/11 02:07:47;;;;;;;10.15;6.68;;;;;;;21.26;62.79;100857.13;2089689;28;20836;-71
2023/09/11 02:08:48;;;;;;;11.38;7.13;;;;;;;21.25;62.57;100859.06;2081630;28;20054;-71
2023/09/11 02:09:50;;;;;;;9.80;7.43;;;;;;;21.24;62.71;100845.72;2096898;27;20181;-71
2023/09/11 02:10:53;;;;;;;9.48;6.43;;;;;;;21.22;62.75;100850.75;2105963;28;20032;-71
2023/09/11 02:11:55;;;;;;;9.32;7.20;;;;;;;21.19;62.79;100849.50;2098629;28;20029;-72
2023/09/11 02:12:57;;;;;;;10.50;6.93;;;;;;;21.18;62.75;100847.09;2089484;28;20032;-71
2023/09/11 02:13:58;;;;;;;9.73;7.28;;;;;;;21.16;62.93;100850.19;2089896;28;20024;-71
2023/09/11 02:15:08;;;;;;;9.77;7.35;;;;;;;21.15;62.84;100847.78;2098550;28;20147;-71
2023/09/11 02:16:09;;;;;;;9.68;7.18;;;;;;;21.14;62.86;100851.66;2090980;28;20037;-71
2023/09/11 02:17:13;;;;;;;10.98;7.40;;;;;;;21.12;62.88;100845.72;2097483;28;20029;-71
2023/09/11 02:18:15;;;;;;;9.00;7.22;;;;;;;21.12;62.93;100848.44;2090393;28;20049;-71
2023/09/11 02:19:17;;;;;;;10.20;7.32;;;;;;;21.10;62.85;100856.22;2097877;28;20040;-72
2023/09/11 02:20:18;;;;;;;11.88;7.57;;;;;;;21.08;62.98;100845.59;2106351;28;20024;-71
2023/09/11 02:21:22;;;;;;;9.25;7.22;;;;;;;21.07;63.24;100846.75;2097720;28;20972;-71
2023/09/11 02:22:23;;;;;;;11.20;7.55;;;;;;;21.05;63.13;100847.09;2089532;28;20058;-71
2023/09/11 02:23:25;;;;;;;8.38;6.82;;;;;;;21.04;63.31;100847.44;2100764;28;20872;-71
2023/09/11 02:24:27;;;;;;;10.52;7.28;;;;;;;21.03;63.33;100851.31;2106521;27;20068;-71
2023/09/11 02:25:29;;;;;;;9.40;7.10;;;;;;;21.01;63.49;100848.91;2106211;28;20036;-71
2023/09/11 02:26:31;;;;;;;10.00;7.43;;;;;;;20.99;63.15;100845.72;2098106;28;20831;-71
2023/09/11 02:27:32;;;;;;;13.07;7.40;;;;;;;20.98;63.33;100846.06;2097997;28;20147;-71
2023/09/11 02:28:35;;;;;;;10.50;7.32;;;;;;;20.96;63.48;100845.59;2097729;28;20067;-71
2023/09/11 02:29:40;;;;;;;9.75;7.20;;;;;;;20.95;63.25;100846.75;2098749;28;20033;-71
2023/09/11 02:30:42;;;;;;;7.45;6.47;;;;;;;20.93;63.21;100852.59;2106202;27;20127;-71
2023/09/11 02:31:44;;;;;;;8.93;6.85;;;;;;;20.92;63.43;100842.75;2106193;28;20029;-71
2023/09/11 02:32:45;;;;;;;9.90;6.72;;;;;;;20.91;63.43;100849.38;2106380;27;20841;-71
2023/09/11 02:33:48;;;;;;;9.15;7.00;;;;;;;20.90;63.24;100845.06;2106128;28;21172;-71
2023/09/11 02:34:52;;;;;;;9.50;6.85;;;;;;;20.89;63.18;100851.66;2097946;28;20153;-71
2023/09/11 02:35:57;;;;;;;8.88;6.65;;;;;;;20.89;63.44;100851.66;2098649;28;20021;-71
2023/09/11 02:36:58;;;;;;;8.55;6.13;;;;;;;20.88;63.33;100849.28;2106919;27;20048;-71
2023/09/11 02:38:00;;;;;;;9.27;6.65;;;;;;;20.87;63.32;100848.47;2114606;28;20146;-71
2023/09/11 02:39:02;;;;;;;9.23;6.90;;;;;;;20.87;63.34;100853.94;2106712;27;20058;-71
2023/09/11 02:40:07;;;;;;;9.40;6.35;;;;;;;20.85;63.32;100850.75;2106107;28;20108;-71
2023/09/11 02:41:10;;;;;;;10.52;7.10;;;;;;;20.83;63.21;100840.13;2107692;27;20033;-71
2023/09/11 02:42:12;;;;;;;8.48;6.10;;;;;;;20.84;63.22;100849.16;2106382;28;20037;-71
2023/09/11 02:43:16;;;;;;;7.47;6.15;;;;;;;20.83;63.30;100848.34;2114837;27;20843;-71
2023/09/11 02:44:17;;;;;;;12.45;6.55;;;;;;;20.82;63.02;100840.50;2105847;28;20139;-71
2023/09/11 02:45:20;;;;;;;10.80;6.50;;;;;;;20.82;63.30;100851.44;2098213;27;20928;-71
2023/09/11 02:46:21;;;;;;;8.05;5.93;;;;;;;20.82;63.23;100845.97;2098279;28;20876;-71
2023/09/11 02:47:26;;;;;;;9.18;6.15;;;;;;;20.81;63.15;100845.16;2099947;28;20052;-71
2023/09/11 02:48:31;;;;;;;7.38;5.95;;;;;;;20.80;63.01;100840.81;2108206;27;20840;-71
2023/09/11 02:49:35;;;;;;;9.63;6.22;;;;;;;20.80;62.91;100845.50;2115684;28;20044;-71
2023/09/11 02:50:39;;;;;;;7.55;6.20;;;;;;;20.80;62.97;100842.75;2099082;28;20029;-71
2023/09/11 02:51:40;;;;;;;8.77;5.88;;;;;;;20.80;62.66;100842.75;2100531;27;20107;-71
2023/09/11 02:52:42;;;;;;;8.45;6.20;;;;;;;20.79;62.92;100836.50;2116002;27;21188;-71
2023/09/11 02:53:46;;;;;;;10.52;6.30;;;;;;;20.78;62.94;100839.59;2099013;28;20150;-71
2023/09/11 02:54:48;;;;;;;9.90;6.78;;;;;;;20.79;63.06;100838.44;2100533;27;20844;-71
2023/09/11 02:55:50;;;;;;;11.57;6.70;;;;;;;20.78;63.01;100847.78;2115652;28;20039;-71
2023/09/11 02:56:52;;;;;;;8.75;5.60;;;;;;;20.78;63.03;100839.59;2099057;28;20083;-71
2023/09/11 02:57:54;;;;;;;12.50;6.03;;;;;;;20.78;63.02;100845.06;2090916;28;20076;-71
2023/09/11 02:58:58;;;;;;;9.13;6.00;;;;;;;20.77;63.09;100840.69;2100193;27;20029;-71
2023/09/11 03:00:05;;;;;;;7.85;6.15;;;;;;;20.77;63.10;100844.22;2107506;28;20145;-72
2023/09/11 03:01:07;;;;;;;7.47;5.88;;;;;;;20.77;63.04;100837.97;2108598;27;20044;-72
2023/09/11 03:02:11;;;;;;;8.18;6.20;;;;;;;20.77;63.19;100841.50;2107503;28;20143;-72
2023/09/11 03:03:13;;;;;;;7.35;5.60;;;;;;;20.77;63.07;100837.97;2098945;28;20891;-72
2023/09/11 03:04:20;;;;;;;8.95;6.20;;;;;;;20.77;63.23;100846.16;2099969;28;20053;-71
2023/09/11 03:05:22;;;;;;;7.22;5.97;;;;;;;20.76;63.10;100831.72;2100524;28;20886;-71
2023/09/11 03:06:24;;;;;;;8.63;6.30;;;;;;;20.76;63.15;100836.38;2107456;27;20021;-71
2023/09/11 03:07:25;;;;;;;8.45;6.25;;;;;;;20.75;63.32;100838.31;2098477;28;20867;-71
2023/09/11 03:08:29;;;;;;;9.10;6.38;;;;;;;20.75;63.17;100840.28;2096866;28;20037;-71
2023/09/11 03:09:33;;;;;;;9.35;6.65;;;;;;;20.75;63.54;100840.28;2090892;28;20141;-71
2023/09/11 03:10:37;;;;;;;7.97;6.18;;;;;;;20.74;63.26;100835.91;2091264;28;20025;-71
2023/09/11 03:11:41;;;;;;;8.18;5.88;;;;;;;20.74;63.43;100834.00;2091528;28;20939;-71
2023/09/11 03:12:45;;;;;;;8.73;6.32;;;;;;;20.74;63.37;100835.91;2083941;28;20143;-71
2023/09/11 03:13:49;;;;;;;8.50;6.40;;;;;;;20.73;63.53;100823.41;2074854;28;20034;-71
2023/09/11 03:14:54;;;;;;;12.73;9.25;;;;;;;20.72;63.45;100836.28;2093286;28;20034;-71
2023/09/11 03:15:58;;;;;;;12.38;9.30;;;;;;;20.71;63.60;100836.59;2090754;28;20076;-71
2023/09/11 03:17:01;;;;;;;10.38;7.47;;;;;;;20.70;63.76;100832.28;2091891;28;20042;-72
2023/09/11 03:18:05;;;;;;;8.70;7.15;;;;;;;20.69;63.88;100831.50;2098980;28;20032;-71
2023/09/11 03:19:07;;;;;;;9.20;6.78;;;;;;;20.68;63.92;100832.63;2083397;28;20935;-71
2023/09/11 03:20:11;;;;;;;8.88;6.68;;;;;;;20.68;63.74;100826.34;2090417;28;20121;-71
2023/09/11 03:21:13;;;;;;;9.85;6.75;;;;;;;20.66;63.86;100832.16;2099626;28;20029;-71
2023/09/11 03:22:15;;;;;;;7.65;6.53;;;;;;;20.65;63.59;100830.59;2090361;28;20044;-71
2023/09/11 03:23:16;;;;;;;8.43;6.68;;;;;;;20.64;63.70;100830.91;2100563;27;20088;-71
2023/09/11 03:24:19;;;;;;;10.30;6.60;;;;;;;20.62;63.82;100831.25;2115694;27;20031;-71
2023/09/11 03:25:23;;;;;;;10.95;6.68;;;;;;;20.62;63.71;100830.44;2098811;28;20045;-71
2023/09/11 03:26:25;;;;;;;10.50;6.93;;;;;;;20.59;63.71;100832.72;2099311;28;20072;-71
2023/09/11 03:27:32;;;;;;;10.77;6.82;;;;;;;20.58;63.69;100831.13;2109071;27;20043;-71
2023/09/11 03:28:38;;;;;;;12.23;7.72;;;;;;;20.57;63.96;100828.75;2099346;28;20870;-71
2023/09/11 03:29:39;;;;;;;9.15;7.28;;;;;;;20.55;63.97;100826.38;2083815;28;20026;-71
2023/09/11 03:30:43;;;;;;;12.80;7.45;;;;;;;20.54;63.89;100830.22;2091319;28;20106;-71
2023/09/11 03:31:44;;;;;;;10.80;7.75;;;;;;;20.52;64.09;100827.03;2099446;28;20804;-71
2023/09/11 03:32:45;;;;;;;10.35;7.70;;;;;;;20.51;64.05;100821.88;2098912;28;20902;-71
2023/09/11 03:33:47;;;;;;;9.80;7.63;;;;;;;20.50;64.09;100829.28;2099078;28;20051;-71
2023/09/11 03:34:57;;;;;;;13.30;7.70;;;;;;;20.48;64.22;100826.06;2107356;27;20012;-71
2023/09/11 03:36:00;;;;;;;10.18;7.68;;;;;;;20.48;64.17;100823.34;2117168;27;20032;-71
2023/09/11 03:37:02;;;;;;;11.45;8.13;;;;;;;20.46;64.11;100819.34;2115566;27;20116;-71
2023/09/11 03:38:04;;;;;;;13.25;7.70;;;;;;;20.45;64.49;100821.28;2107574;28;21238;-71
2023/09/11 03:39:06;;;;;;;13.00;7.63;;;;;;;20.44;64.30;100830.63;2098937;28;20041;-71
2023/09/11 03:40:15;;;;;;;9.68;7.00;;;;;;;20.43;64.27;100834.50;2099057;28;20102;-71
2023/09/11 03:41:18;;;;;;;9.82;7.30;;;;;;;20.41;64.42;100831.31;2101304;28;20033;-71
2023/09/11 03:42:20;;;;;;;10.55;7.28;;;;;;;20.42;64.44;100832.88;2090619;28;20152;-71
2023/09/11 03:43:26;;;;;;;9.25;6.70;;;;;;;20.40;64.37;100826.97;2083825;28;20085;-71
2023/09/11 03:44:30;;;;;;;12.07;7.25;;;;;;;20.39;64.75;100828.09;2091802;28;20861;-71
2023/09/11 03:45:32;;;;;;;11.60;7.25;;;;;;;20.37;64.36;100825.72;2116044;27;20135;-71
2023/09/11 03:46:37;;;;;;;13.70;7.63;;;;;;;20.36;64.40;100829.59;2115419;27;20035;-71
2023/09/11 03:47:39;;;;;;;10.02;6.97;;;;;;;20.37;64.38;100838.59;2099269;28;20037;-71
2023/09/11 03:48:41;;;;;;;10.07;7.30;;;;;;;20.36;64.51;100828.78;2099026;28;20028;-71
2023/09/11 03:49:43;;;;;;;11.48;7.43;;;;;;;20.35;64.58;100824.47;2098677;28;20151;-71
2023/09/11 03:50:44;;;;;;;9.85;7.78;;;;;;;20.34;64.89;100823.66;2107423;27;20044;-71
2023/09/11 03:51:46;;;;;;;11.52;7.38;;;;;;;20.35;64.91;100824.47;2107042;28;20017;-72
2023/09/11 03:52:48;;;;;;;9.82;7.60;;;;;;;20.32;64.73;100825.94;2107462;27;20063;-71
2023/09/11 03:53:50;;;;;;;11.85;7.65;;;;;;;20.32;64.77;100817.72;2098537;28;21297;-71
2023/09/11 03:54:56;;;;;;;8.80;6.90;;;;;;;20.31;64.99;100818.88;2092933;28;20053;-71
2023/09/11 03:55:57;;;;;;;11.32;7.40;;;;;;;20.31;65.09;100823.53;2099055;28;20041;-72
2023/09/11 03:56:59;;;;;;;9.98;7.28;;;;;;;20.31;64.85;100815.34;2090339;28;20152;-72
2023/09/11 03:58:04;;;;;;;9.93;7.50;;;;;;;20.29;65.06;100815.69;2107235;27;20021;-72
2023/09/11 03:59:06;;;;;;;14.32;7.60;;;;;;;20.30;65.06;100813.75;2115394;28;20040;-71
2023/09/11 04:00:13;;;;;;;11.30;7.53;;;;;;;20.30;65.17;100821.94;2090182;28;20042;-72
2023/09/11 04:01:20;;;;;;;7.80;6.70;;;;;;;20.30;65.31;100813.75;2111784;27;20036;-72
2023/09/11 04:02:26;;;;;;;11.70;7.90;;;;;;;20.28;65.20;100819.56;2115014;28;20724;-71
2023/09/11 04:03:30;;;;;;;9.75;7.18;;;;;;;20.28;65.32;100811.34;2108007;28;20033;-72
2023/09/11 04:04:31;;;;;;;9.02;7.07;;;;;;;20.30;65.46;100813.75;2090981;28;20959;-71
2023/09/11 04:05:35;;;;;;;10.48;7.38;;;;;;;20.29;65.53;100814.88;2099216;27;20028;-71
2023/09/11 04:06:39;;;;;;;10.43;7.32;;;;;;;20.29;65.42;100814.88;2115602;27;20070;-71
2023/09/11 04:07:45;;;;;;;10.52;7.07;;;;;;;20.28;65.50;100811.34;2107780;28;20142;-72
2023/09/11 04:08:49;;;;;;;10.50;7.07;;;;;;;20.28;65.28;100813.28;2085940;28;20073;-72
2023/09/11 04:09:51;;;;;;;10.68;7.15;;;;;;;20.28;65.54;100813.28;2098229;28;20084;-71
2023/09/11 04:10:52;;;;;;;12.38;7.30;;;;;;;20.27;65.54;100820.69;2098065;28;20160;-71
2023/09/11 04:11:55;;;;;;;9.43;7.35;;;;;;;20.26;65.57;100816.34;2107405;27;20870;-71
2023/09/11 04:12:57;;;;;;;8.50;6.50;;;;;;;20.27;65.73;100817.97;2115299;27;20036;-71
2023/09/11 04:14:03;;;;;;;9.00;7.05;;;;;;;20.27;65.68;100806.22;2115020;28;20058;-72
2023/09/11 04:15:09;;;;;;;8.18;6.68;;;;;;;20.26;65.75;100808.16;2109027;27;20106;-71
2023/09/11 04:16:15;;;;;;;10.13;6.93;;;;;;;20.28;65.57;100810.56;2107181;28;20090;-73
2023/09/11 04:17:17;;;;;;;11.65;7.28;;;;;;;20.27;65.83;100806.22;2107360;28;20856;-71
2023/09/11 04:18:21;;;;;;;10.23;7.50;;;;;;;20.27;65.78;100808.94;2099196;28;20846;-70
2023/09/11 04:19:30;;;;;;;12.30;6.75;;;;;;;20.27;65.81;100814.41;2100612;28;20764;-70
2023/09/11 04:20:33;;;;;;;14.10;6.90;;;;;;;20.27;65.90;100808.94;2108583;27;20067;-71
2023/09/11 04:21:38;;;;;;;9.13;6.60;;;;;;;20.27;65.86;100807.03;2107359;28;20024;-71
2023/09/11 04:22:47;;;;;;;13.95;7.45;;;;;;;20.26;65.79;100816.34;2108709;27;20047;-72
2023/09/11 04:23:48;;;;;;;12.32;7.40;;;;;;;20.28;65.90;100822.28;2100828;28;20055;-71
2023/09/11 04:24:50;;;;;;;9.48;6.80;;;;;;;20.28;65.57;100821.50;2081576;28;20033;-71
2023/09/11 04:25:54;;;;;;;11.82;6.78;;;;;;;20.28;65.91;100816.03;2089110;28;20886;-72
2023/09/11 04:27:00;;;;;;;10.75;6.78;;;;;;;20.28;66.05;100821.50;2096816;28;20067;-72
2023/09/11 04:28:02;;;;;;;9.77;6.32;;;;;;;20.28;65.98;100813.28;2098605;27;20064;-72
2023/09/11 04:29:06;;;;;;;11.65;7.50;;;;;;;20.27;65.86;100814.41;2105001;28;20106;-72
2023/09/11 04:30:10;;;;;;;11.55;7.25;;;;;;;20.29;66.00;100820.34;2098137;28;20024;-71
2023/09/11 04:31:15;;;;;;;10.48;6.97;;;;;;;20.29;65.90;100810.22;2105808;28;20032;-71
2023/09/11 04:32:20;;;;;;;11.57;6.90;;;;;;;20.28;66.17;100816.81;2105844;28;21309;-71
2023/09/11 04:33:27;;;;;;;8.57;6.47;;;;;;;20.30;66.01;100811.00;2097893;28;20172;-71
2023/09/11 04:34:32;;;;;;;9.27;6.75;;;;;;;20.30;65.99;100816.47;2098721;27;20029;-71
2023/09/11 04:35:38;;;;;;;11.20;6.20;;;;;;;20.30;66.09;100811.00;2096851;28;20095;-71
2023/09/11 04:36:42;;;;;;;10.38;6.72;;;;;;;20.29;65.94;100804.75;2082027;28;20100;-71
2023/09/11 04:37:52;;;;;;;8.73;6.82;;;;;;;20.31;65.91;100801.69;2097762;28;20061;-71
2023/09/11 04:38:57;;;;;;;9.65;7.15;;;;;;;20.31;65.90;100804.44;2098228;28;20871;-71
2023/09/11 04:40:02;;;;;;;11.13;7.03;;;;;;;20.31;66.11;100801.69;2088690;28;20148;-73
2023/09/11 04:41:03;;;;;;;9.95;6.70;;;;;;;20.32;65.98;100809.53;2088519;28;20021;-71
2023/09/11 04:42:08;;;;;;;10.45;7.00;;;;;;;20.30;66.18;100800.09;2079884;28;20143;-71
2023/09/11 04:43:09;;;;;;;11.10;6.70;;;;;;;20.33;66.19;100802.13;2080903;28;20034;-71
2023/09/11 04:44:12;;;;;;;10.23;7.40;;;;;;;20.32;66.14;100800.56;2087899;28;20073;-71
2023/09/11 04:45:16;;;;;;;11.32;7.05;;;;;;;20.34;66.34;100796.34;2088302;28;20030;-74
2023/09/11 04:46:17;;;;;;;11.63;7.15;;;;;;;20.34;66.27;100799.09;2079598;28;20038;-72
2023/09/11 04:47:20;;;;;;;10.50;7.00;;;;;;;20.34;66.22;100798.28;2071917;28;20149;-72
2023/09/11 04:48:21;;;;;;;11.90;6.70;;;;;;;20.36;66.45;100793.28;2080118;28;20038;-71
2023/09/11 04:49:23;;;;;;;10.70;7.20;;;;;;;20.38;66.42;100796.47;2096553;28;20017;-74
2023/09/11 04:50:25;;;;;;;9.70;6.63;;;;;;;20.39;66.66;100795.31;2080228;28;20139;-71
2023/09/11 04:51:27;;;;;;;9.75;6.60;;;;;;;20.40;66.55;100802.41;2080531;28;21307;-71
2023/09/11 04:52:28;;;;;;;9.95;6.70;;;;;;;20.41;66.66;100798.53;2087652;28;20030;-71
2023/09/11 04:53:32;;;;;;;11.18;6.70;;;;;;;20.41;66.63;100793.06;2080356;28;20037;-70
2023/09/11 04:54:35;;;;;;;9.75;6.97;;;;;;;20.44;66.59;100789.66;2088431;28;20037;-71
2023/09/11 04:55:37;;;;;;;11.05;7.20;;;;;;;20.47;66.90;100790.91;2097154;28;20037;-72
2023/09/11 04:56:44;;;;;;;9.02;6.57;;;;;;;20.48;66.66;100790.56;2097080;28;20029;-71
2023/09/11 04:57:48;;;;;;;8.50;6.65;;;;;;;20.50;67.04;100795.69;2089248;28;20021;-70